This is the latest recevied weather packets stored in our database for station/object NK7E-2. If no packets are shown the sender has not sent any weather packets the latest 10 day(s).
| Time | Temp. | Humidity | Pressure | Rain* | Wind** | Luminosity | Snow |
|---|---|---|---|---|---|---|---|
| 1787675716 | 33.33° C | 29% | 1030.9 hPa | 0 mm | - | - | - |
| 1787675116 | 32.78° C | 30% | 1031 hPa | 0 mm | - | - | - |
| 1787674516 | 32.78° C | 31% | 1030.8 hPa | 0 mm | - | - | - |
| 1787673916 | 32.22° C | 31% | 1030.7 hPa | 0 mm | - | - | - |
| 1787673316 | 31.67° C | 33% | 1030.8 hPa | 0 mm | - | - | - |
| 1787672716 | 31.67° C | 33% | 1030.6 hPa | 0 mm | - | - | - |
| 1787672116 | 31.11° C | 34% | 1030.6 hPa | 0 mm | - | - | - |
| 1787671516 | 31.11° C | 34% | 1030.5 hPa | 0 mm | - | - | - |
| 1787670916 | 31.67° C | 33% | 1030.5 hPa | 0 mm | - | - | - |
| 1787670316 | 31.67° C | 31% | 1030.6 hPa | 0 mm | - | - | - |
| 1787669716 | 31.11° C | 31% | 1030.3 hPa | 0 mm | - | - | - |
| 1787669116 | 31.11° C | 32% | 1030.1 hPa | 0 mm | - | - | - |
| 1787668516 | 30° C | 33% | 1030.1 hPa | 0 mm | - | - | - |
| 1787667916 | 28.89° C | 36% | 1029.9 hPa | 0 mm | - | - | - |
| 1787667316 | 28.33° C | 38% | 1029.5 hPa | 0 mm | - | - | - |
| 1787666716 | 26.67° C | 43% | 1029.7 hPa | 0 mm | - | - | - |
| 1787666116 | 25.56° C | 44% | 1029.3 hPa | 0 mm | - | - | - |
| 1787665516 | 25° C | 45% | 1028.9 hPa | 0 mm | - | - | - |
| 1787664916 | 25° C | 45% | 1028.8 hPa | 0 mm | - | - | - |
| 1787664316 | 25° C | 44% | 1029 hPa | 0 mm | - | - | - |
| 1787663716 | 26.11° C | 42% | 1028.7 hPa | 0 mm | - | - | - |
| 1787663116 | 26.11° C | 41% | 1028.8 hPa | 0 mm | - | - | - |
| 1787662516 | 26.11° C | 42% | 1028.6 hPa | 0 mm | - | - | - |
| 1787661917 | 25.56° C | 42% | 1028.5 hPa | 0 mm | - | - | - |
| 1787661316 | 26.11° C | 41% | 1028.5 hPa | 0 mm | - | - | - |
* Rain latest hour (hover to see other rain measurements)
** Current wind speed in m/s (hover to see current wind gust speed)